createdAt,value
2018-03-02T00:02:21.003Z,48.60
2018-03-02T00:04:50.068Z,44.30
2018-03-02T00:07:19.167Z,43.93
2018-03-02T00:09:48.293Z,41.77
2018-03-02T00:12:17.363Z,37.47
2018-03-02T00:14:46.446Z,40.07
2018-03-02T00:17:15.508Z,37.90
2018-03-02T00:19:44.629Z,41.90
2018-03-02T00:22:13.703Z,45.77
2018-03-02T00:24:42.755Z,37.47
2018-03-02T00:27:11.841Z,36.87
2018-03-02T00:29:40.903Z,29.40
2018-03-02T00:32:09.978Z,33.50
2018-03-02T00:34:39.055Z,43.10
2018-03-02T00:37:08.875Z,51.63
2018-03-02T00:39:38.711Z,36.77
2018-03-02T00:42:07.774Z,34.23
2018-03-02T00:44:37.643Z,35.30
2018-03-02T00:47:06.729Z,39.67
2018-03-02T00:49:35.782Z,37.33
2018-03-02T00:52:05.631Z,38.53
2018-03-02T00:54:34.705Z,41.33
2018-03-02T00:57:04.691Z,34.60
2018-03-02T00:59:34.530Z,38.13
2018-03-02T01:02:03.605Z,35.10
2018-03-02T01:04:33.471Z,33.37
2018-03-02T01:07:02.536Z,36.67
2018-03-02T01:09:31.588Z,34.37
2018-03-02T01:12:00.675Z,36.97
2018-03-02T01:14:29.768Z,36.97
2018-03-02T01:16:58.902Z,38.33
2018-03-02T01:19:27.992Z,34.30
2018-03-02T01:21:57.815Z,33.03
2018-03-02T01:24:26.897Z,30.13
2018-03-02T01:26:56.714Z,35.10
2018-03-02T01:29:26.566Z,33.57
2018-03-02T01:31:55.644Z,40.20
2018-03-02T01:34:24.791Z,36.37
2018-03-02T01:36:53.960Z,33.23
2018-03-02T01:39:23.044Z,47.80
2018-03-02T01:41:52.216Z,35.17
2018-03-02T01:46:55.509Z,34.20
2018-03-02T01:49:24.641Z,33.97
2018-03-02T01:51:53.694Z,35.73
2018-03-02T01:54:23.551Z,35.33
2018-03-02T01:56:52.649Z,32.00
2018-03-02T01:59:21.797Z,33.40
2018-03-02T02:01:50.868Z,31.27
2018-03-02T02:04:19.971Z,30.53
2018-03-02T02:06:49.040Z,35.23
2018-03-02T02:09:18.146Z,24.57
2018-03-02T02:11:47.290Z,30.40
2018-03-02T02:14:17.156Z,36.50
2018-03-02T02:16:46.232Z,30.47
2018-03-02T02:19:15.361Z,37.50
2018-03-02T02:21:44.433Z,35.60
2018-03-02T02:24:13.534Z,31.20
2018-03-02T02:26:42.680Z,34.40
2018-03-02T02:29:12.546Z,39.00
2018-03-02T02:31:41.684Z,39.73
2018-03-02T02:34:10.788Z,34.10
2018-03-02T02:36:40.663Z,29.90
2018-03-02T02:39:09.740Z,30.23
2018-03-02T02:41:38.848Z,32.03
2018-03-02T02:44:07.933Z,33.47
2018-03-02T02:46:37.006Z,31.57
2018-03-02T02:49:06.681Z,33.63
2018-03-02T02:51:36.530Z,37.73
2018-03-02T02:54:05.649Z,32.87
2018-03-02T02:56:34.747Z,32.20
2018-03-02T02:59:03.849Z,40.67
2018-03-02T03:01:32.926Z,31.97
2018-03-02T03:04:02.039Z,30.77
2018-03-02T03:06:31.117Z,28.40
2018-03-02T03:09:00.190Z,29.93
2018-03-02T03:11:29.275Z,32.87
2018-03-02T03:13:58.356Z,26.07
2018-03-02T03:16:28.231Z,32.00
2018-03-02T03:18:57.334Z,29.97
2018-03-02T03:21:26.426Z,28.00
2018-03-02T03:23:55.546Z,25.90
2018-03-02T03:26:25.398Z,34.07
2018-03-02T03:28:54.483Z,32.50
2018-03-02T03:31:23.563Z,33.10
2018-03-02T03:33:52.671Z,29.30
2018-03-02T03:36:21.763Z,31.40
2018-03-02T03:38:50.866Z,27.70
2018-03-02T03:41:19.943Z,32.70
2018-03-02T03:43:49.077Z,29.30
2018-03-02T03:46:18.180Z,31.23
2018-03-02T03:48:48.100Z,32.27
2018-03-02T03:51:18.079Z,30.30
2018-03-02T03:53:47.131Z,29.67
2018-03-02T03:56:16.251Z,30.47
2018-03-02T03:58:46.091Z,29.27
2018-03-02T04:01:15.238Z,27.37
2018-03-02T04:03:44.320Z,30.73
2018-03-02T04:06:13.398Z,26.67
2018-03-02T04:08:42.715Z,31.17
2018-03-02T04:11:11.860Z,30.83
2018-03-02T04:13:41.708Z,29.57
2018-03-02T04:16:10.859Z,33.80
2018-03-02T04:18:39.936Z,29.93
2018-03-02T04:21:09.767Z,32.30
2018-03-02T04:23:38.907Z,31.30
2018-03-02T04:26:07.979Z,27.50
2018-03-02T04:28:37.058Z,29.60
2018-03-02T04:31:06.452Z,34.53
2018-03-02T04:33:35.524Z,39.20
2018-03-02T04:36:05.359Z,34.33
2018-03-02T04:38:34.537Z,31.37
2018-03-02T04:41:03.615Z,32.47
2018-03-02T04:43:33.067Z,32.30
2018-03-02T04:46:02.147Z,33.77
2018-03-02T04:48:31.235Z,33.80
2018-03-02T04:51:01.146Z,28.17
2018-03-02T04:53:31.006Z,34.77
2018-03-02T04:56:00.071Z,31.70
2018-03-02T04:58:29.763Z,34.20
2018-03-02T05:00:59.597Z,31.87
2018-03-02T05:03:28.678Z,36.60
2018-03-02T05:05:58.820Z,34.33
2018-03-02T05:08:27.903Z,35.47
2018-03-02T05:10:56.974Z,34.73
2018-03-02T05:13:27.133Z,35.30
2018-03-02T05:15:56.195Z,34.13
2018-03-02T05:18:26.071Z,32.77
2018-03-02T05:20:55.142Z,35.93
2018-03-02T05:23:24.231Z,36.07
2018-03-02T05:25:53.611Z,29.37
2018-03-02T05:28:22.694Z,33.17
2018-03-02T05:30:52.526Z,40.10
2018-03-02T05:33:21.918Z,31.40
2018-03-02T05:35:50.995Z,26.13
2018-03-02T05:38:20.907Z,33.87
2018-03-02T05:40:50.112Z,29.30
2018-03-02T05:43:19.958Z,36.13
2018-03-02T05:45:49.240Z,38.20
2018-03-02T05:48:18.362Z,35.83
2018-03-02T05:50:47.445Z,38.50
2018-03-02T05:53:16.523Z,30.80
2018-03-02T05:55:45.958Z,35.20
2018-03-02T05:58:15.024Z,29.70
2018-03-02T06:00:44.107Z,28.37
2018-03-02T06:03:14.015Z,30.03
2018-03-02T06:05:43.852Z,37.57
2018-03-02T06:08:12.919Z,29.73
2018-03-02T06:10:42.861Z,27.70
2018-03-02T06:13:11.934Z,32.60
2018-03-02T06:15:41.798Z,70.87
2018-03-02T06:18:11.158Z,97.93
2018-03-02T06:20:40.284Z,39.93
2018-03-02T06:23:09.415Z,36.93
2018-03-02T06:25:38.765Z,46.73
2018-03-02T06:28:07.836Z,65.57
2018-03-02T06:30:37.678Z,42.33
2018-03-02T06:33:07.081Z,26.57
2018-03-02T06:35:36.155Z,33.27
2018-03-02T06:38:05.251Z,33.47
2018-03-02T06:40:35.182Z,35.90
2018-03-02T06:43:04.255Z,31.00
2018-03-02T06:45:34.094Z,35.53
2018-03-02T06:48:03.636Z,31.97
2018-03-02T06:50:32.713Z,39.77
2018-03-02T06:53:01.795Z,33.97
2018-03-02T06:55:30.936Z,33.10
2018-03-02T06:58:00.026Z,33.40
2018-03-02T07:00:29.115Z,32.40
2018-03-02T07:02:58.239Z,27.73
2018-03-02T07:05:28.098Z,26.70
2018-03-02T07:07:57.168Z,28.97
2018-03-02T07:10:26.664Z,31.97
2018-03-02T07:12:55.737Z,32.40
2018-03-02T07:15:25.636Z,33.37
2018-03-02T07:17:54.737Z,31.20
2018-03-02T07:20:23.816Z,29.53
2018-03-02T07:22:52.892Z,27.17
2018-03-02T07:25:23.342Z,35.37
2018-03-02T07:27:52.423Z,37.67
2018-03-02T07:30:21.509Z,29.47
2018-03-02T07:32:50.653Z,32.10
2018-03-02T07:35:20.545Z,28.40
2018-03-02T07:37:50.009Z,31.30
2018-03-02T07:40:19.288Z,29.60
2018-03-02T07:42:48.598Z,31.40
2018-03-02T07:45:17.842Z,25.00
2018-03-02T07:47:47.739Z,28.80
2018-03-02T07:50:16.863Z,29.67
2018-03-02T07:52:45.971Z,34.13
2018-03-02T07:55:15.808Z,30.37
2018-03-02T07:57:44.919Z,31.40
2018-03-02T08:00:13.993Z,34.03
2018-03-02T08:02:43.113Z,25.23
2018-03-02T08:05:12.190Z,36.00
2018-03-02T08:07:42.295Z,29.70
2018-03-02T08:10:12.147Z,30.03
2018-03-02T08:12:41.222Z,30.50
2018-03-02T08:15:10.457Z,29.50
2018-03-02T08:17:39.561Z,28.70
2018-03-02T08:20:08.698Z,31.73
2018-03-02T08:22:37.811Z,30.17
2018-03-02T08:25:06.874Z,33.73
2018-03-02T08:27:37.040Z,26.87
2018-03-02T08:30:06.167Z,28.53
2018-03-02T08:32:35.295Z,32.80
2018-03-02T08:35:05.144Z,83.23
2018-03-02T08:37:34.296Z,34.73
2018-03-02T08:40:04.129Z,29.60
2018-03-02T08:42:33.199Z,30.87
2018-03-02T08:45:03.348Z,24.80
2018-03-02T08:47:32.417Z,33.27
2018-03-02T08:50:02.283Z,30.27
2018-03-02T08:52:31.428Z,27.00
2018-03-02T08:55:01.280Z,31.70
2018-03-02T08:57:30.360Z,30.77
2018-03-02T08:59:59.572Z,27.97
2018-03-02T09:02:28.673Z,31.73
2018-03-02T09:04:57.766Z,31.77
2018-03-02T09:07:27.161Z,23.80
2018-03-02T09:09:56.285Z,26.33
2018-03-02T09:12:25.340Z,26.03
2018-03-02T09:14:55.609Z,25.00
2018-03-02T09:17:24.700Z,27.03
2018-03-02T09:19:53.863Z,23.00
2018-03-02T09:22:23.100Z,22.20
2018-03-02T09:24:52.242Z,30.43
2018-03-02T09:27:21.352Z,31.50
2018-03-02T09:29:50.631Z,24.03
2018-03-02T09:32:19.738Z,28.87
2018-03-02T09:34:48.820Z,21.87
2018-03-02T09:37:18.105Z,28.07
2018-03-02T09:39:47.146Z,23.17
2018-03-02T09:42:16.218Z,25.17
2018-03-02T09:44:45.426Z,24.60
2018-03-02T09:47:14.522Z,25.47
2018-03-02T09:49:43.595Z,25.23
2018-03-02T09:52:13.015Z,27.93
2018-03-02T09:54:42.098Z,22.40
2018-03-02T09:57:11.184Z,26.23
2018-03-02T09:59:41.422Z,26.67
2018-03-02T10:02:10.487Z,33.63
2018-03-02T10:04:40.359Z,25.40
2018-03-02T10:07:09.519Z,26.47
2018-03-02T10:09:38.590Z,24.73
2018-03-02T10:12:08.435Z,28.30
2018-03-02T10:14:37.824Z,23.03
2018-03-02T10:17:06.941Z,25.93
2018-03-02T10:19:36.036Z,27.77
2018-03-02T10:22:05.432Z,28.40
2018-03-02T10:24:34.491Z,29.00
2018-03-02T10:27:04.348Z,28.23
2018-03-02T10:29:33.732Z,30.53
2018-03-02T10:32:02.799Z,28.00
2018-03-02T10:34:32.646Z,28.20
2018-03-02T10:37:01.787Z,26.50
2018-03-02T10:39:30.859Z,27.73
2018-03-02T10:42:00.036Z,29.60
2018-03-02T10:44:29.133Z,26.97
2018-03-02T10:46:59.151Z,30.57
2018-03-02T10:49:28.277Z,43.40
2018-03-02T10:51:57.384Z,35.83
2018-03-02T10:54:26.470Z,29.87
2018-03-02T10:56:55.584Z,26.20
2018-03-02T10:59:25.443Z,26.90
2018-03-02T11:01:54.538Z,21.37
2018-03-02T11:17:45.448Z,29.23
2018-03-02T11:20:14.534Z,31.70
2018-03-02T11:22:43.630Z,35.43
2018-03-02T11:25:12.750Z,38.00
2018-03-02T11:27:41.887Z,73.53
2018-03-02T11:30:10.988Z,41.67
2018-03-02T11:32:40.088Z,113.80
2018-03-02T11:35:09.206Z,37.60
2018-03-02T11:37:38.313Z,32.67
2018-03-02T11:40:07.417Z,31.70
2018-03-02T11:42:36.517Z,31.97
2018-03-02T11:45:05.594Z,35.90
2018-03-02T11:47:34.711Z,33.40
2018-03-02T11:50:03.797Z,36.93
2018-03-02T11:52:33.602Z,38.33
2018-03-02T11:55:02.712Z,33.40
2018-03-02T11:57:31.820Z,34.20
2018-03-02T12:00:00.900Z,31.90
2018-03-02T12:02:30.028Z,31.43
2018-03-02T12:04:59.894Z,32.10
2018-03-02T12:07:28.972Z,37.03
2018-03-02T12:09:58.041Z,32.90
2018-03-02T12:12:27.190Z,43.77
2018-03-02T12:14:56.311Z,38.50
2018-03-02T12:17:26.155Z,35.27
2018-03-02T12:19:55.245Z,32.30
2018-03-02T12:22:24.375Z,32.50
2018-03-02T12:24:53.455Z,34.30
2018-03-02T12:27:22.564Z,34.33
2018-03-02T12:29:51.675Z,51.60
2018-03-02T12:32:20.882Z,31.80
2018-03-02T12:34:50.096Z,39.83
2018-03-02T12:37:19.223Z,39.97
2018-03-02T12:39:48.303Z,36.40
2018-03-02T12:42:17.391Z,38.13
2018-03-02T12:44:47.251Z,40.80
2018-03-02T12:47:16.374Z,38.87
2018-03-02T12:49:45.511Z,72.87
2018-03-02T12:52:14.571Z,35.80
2018-03-02T12:54:43.668Z,43.17
2018-03-02T12:57:12.790Z,100.47
2018-03-02T12:59:41.890Z,39.47
2018-03-02T13:02:10.983Z,38.60
2018-03-02T13:04:40.073Z,33.70
2018-03-02T13:07:09.950Z,27.97
2018-03-02T13:09:39.050Z,39.47
2018-03-02T13:12:08.116Z,33.00
2018-03-02T13:14:37.243Z,38.77
2018-03-02T13:17:06.345Z,36.90
2018-03-02T13:19:35.474Z,39.03
2018-03-02T13:22:04.577Z,36.23
2018-03-02T13:24:33.652Z,35.00
2018-03-02T13:27:22.172Z,38.87
2018-03-02T13:29:51.301Z,36.83
2018-03-02T13:32:21.155Z,41.63
2018-03-02T13:48:45.038Z,38.67
2018-03-02T13:51:14.128Z,36.47
2018-03-02T13:53:43.211Z,41.50
2018-03-02T13:56:30.306Z,38.37
2018-03-02T13:58:59.390Z,37.70
2018-03-02T14:01:28.487Z,35.67
2018-03-02T14:04:15.452Z,46.17
2018-03-02T14:06:44.568Z,35.17
2018-03-02T14:09:14.427Z,39.80
2018-03-02T14:11:43.566Z,43.17
2018-03-02T14:14:12.680Z,37.67
2018-03-02T14:16:42.535Z,35.23
2018-03-02T14:19:11.615Z,36.50
2018-03-02T14:21:40.711Z,35.80
2018-03-02T14:24:09.851Z,37.23
2018-03-02T14:26:38.972Z,36.10
2018-03-02T14:29:08.815Z,31.53
2018-03-02T14:31:37.926Z,35.70
2018-03-02T14:34:07.055Z,34.50
2018-03-02T14:36:36.126Z,41.10
2018-03-02T14:39:06.096Z,33.37
2018-03-02T14:41:35.939Z,41.60
2018-03-02T14:44:05.032Z,34.60
2018-03-02T14:46:34.226Z,40.90
2018-03-02T14:49:03.360Z,30.30
2018-03-02T14:51:33.306Z,36.63
2018-03-02T14:54:03.205Z,35.10
2018-03-02T14:56:33.078Z,42.60
2018-03-02T14:59:02.160Z,47.57
2018-03-02T15:01:31.277Z,51.10
2018-03-02T15:04:00.389Z,52.83
2018-03-02T15:06:29.484Z,48.23
2018-03-02T15:08:58.588Z,44.80
2018-03-02T15:11:27.660Z,47.10
2018-03-02T15:13:56.744Z,54.93
2018-03-02T15:16:25.879Z,45.00
2018-03-02T15:18:54.955Z,44.53
2018-03-02T15:21:24.020Z,55.67
2018-03-02T15:23:53.180Z,52.90
2018-03-02T15:26:23.046Z,51.17
2018-03-02T15:28:52.137Z,53.70
2018-03-02T15:31:22.122Z,65.83
2018-03-02T15:33:51.198Z,61.97
2018-03-02T15:36:21.037Z,56.20
2018-03-02T15:38:50.185Z,55.10
2018-03-02T15:41:19.271Z,54.60
2018-03-02T15:43:48.360Z,51.77
2018-03-02T15:46:17.559Z,48.77
2018-03-02T15:48:46.645Z,53.13
2018-03-02T15:51:15.916Z,51.87
2018-03-02T15:53:45.066Z,51.87
2018-03-02T15:56:14.154Z,50.43
2018-03-02T15:58:43.282Z,54.60
2018-03-02T16:01:13.189Z,53.17
2018-03-02T16:03:43.049Z,53.20
2018-03-02T16:06:12.147Z,48.80
2018-03-02T16:08:41.271Z,47.10
2018-03-02T16:11:10.404Z,48.27
2018-03-02T16:13:39.492Z,47.80
2018-03-02T16:16:09.384Z,45.30
2018-03-02T16:18:38.465Z,48.80
2018-03-02T16:21:07.547Z,47.60
2018-03-02T16:23:36.663Z,43.97
2018-03-02T16:26:05.823Z,47.60
2018-03-02T16:28:34.895Z,54.40
2018-03-02T16:31:04.002Z,41.43
2018-03-02T16:33:33.122Z,41.83
2018-03-02T16:36:02.198Z,37.53
2018-03-02T16:38:31.274Z,39.67
2018-03-02T16:41:00.396Z,35.80
2018-03-02T16:43:29.491Z,40.23
2018-03-02T16:45:58.595Z,40.67
2018-03-02T16:48:27.684Z,39.00
2018-03-02T16:50:56.797Z,162.70
2018-03-02T16:53:25.896Z,137.07
2018-03-02T16:55:55.041Z,154.23
2018-03-02T16:58:24.111Z,58.13
2018-03-02T17:00:53.981Z,40.20
2018-03-02T17:03:23.102Z,41.40
2018-03-02T17:05:52.201Z,36.97
2018-03-02T17:08:21.300Z,37.50
2018-03-02T17:10:51.193Z,37.90
2018-03-02T17:13:20.312Z,41.50
2018-03-02T17:15:49.404Z,38.53
2018-03-02T17:18:18.515Z,41.10
2018-03-02T17:20:48.370Z,47.53
2018-03-02T17:23:17.494Z,40.77
2018-03-02T17:25:47.931Z,48.83
2018-03-02T17:28:17.017Z,41.67
2018-03-02T17:30:46.171Z,47.43
2018-03-02T17:33:15.272Z,38.20
2018-03-02T17:35:44.374Z,43.80
2018-03-02T17:38:13.492Z,44.00
2018-03-02T17:40:42.575Z,38.97
2018-03-02T17:43:11.703Z,38.80
2018-03-02T17:45:41.559Z,39.17
2018-03-02T17:48:10.682Z,46.53
2018-03-02T17:50:39.804Z,45.27
2018-03-02T17:53:08.887Z,48.33
2018-03-02T17:55:38.016Z,51.20
2018-03-02T17:58:07.886Z,43.70
2018-03-02T18:00:37.028Z,44.03
2018-03-02T18:03:06.921Z,44.23
2018-03-02T18:05:36.052Z,50.50
2018-03-02T18:08:05.174Z,52.60
2018-03-02T18:10:34.362Z,121.07
2018-03-02T18:13:03.596Z,102.77
2018-03-02T18:15:32.675Z,56.10
2018-03-02T18:18:01.813Z,48.47
2018-03-02T18:20:31.965Z,54.07
2018-03-02T18:23:01.215Z,58.40
2018-03-02T18:25:30.300Z,56.13
2018-03-02T18:27:59.435Z,53.50
2018-03-02T18:30:29.287Z,59.57
2018-03-02T18:32:58.367Z,51.03
2018-03-02T18:35:27.480Z,46.77
2018-03-02T18:37:56.605Z,52.83
2018-03-02T18:40:25.701Z,122.97
2018-03-02T18:42:55.596Z,54.47
2018-03-02T18:45:24.695Z,50.13
2018-03-02T18:47:53.778Z,49.63
2018-03-02T18:50:22.959Z,41.30
2018-03-02T18:52:52.057Z,48.67
2018-03-02T18:55:21.172Z,63.10
2018-03-02T18:57:50.328Z,77.47
2018-03-02T19:00:19.438Z,74.43
2018-03-02T19:02:48.548Z,56.27
2018-03-02T19:05:17.669Z,52.83
2018-03-02T19:07:46.760Z,49.13
2018-03-02T19:10:15.864Z,49.57
2018-03-02T19:12:44.946Z,43.53
2018-03-02T19:15:14.064Z,42.53
2018-03-02T19:17:43.919Z,43.50
2018-03-02T19:20:13.043Z,49.03
2018-03-02T19:22:42.125Z,41.07
2018-03-02T19:25:11.260Z,39.80
2018-03-02T19:27:41.175Z,43.53
2018-03-02T19:30:10.240Z,45.67
2018-03-02T19:32:39.354Z,43.93
2018-03-02T19:35:08.475Z,45.13
2018-03-02T19:37:38.349Z,45.03
2018-03-02T19:40:07.471Z,46.37
2018-03-02T19:42:37.331Z,54.13
2018-03-02T19:45:06.445Z,46.77
2018-03-02T19:47:35.524Z,60.17
2018-03-02T19:50:04.652Z,65.93
2018-03-02T19:52:33.776Z,72.60
2018-03-02T19:55:03.619Z,65.43
2018-03-02T19:57:32.742Z,69.80
2018-03-02T20:00:01.850Z,55.57
2018-03-02T20:02:30.952Z,53.83
2018-03-02T20:05:00.065Z,47.83
2018-03-02T20:07:29.912Z,56.77
2018-03-02T20:10:01.053Z,54.27
2018-03-02T20:12:30.258Z,56.27
2018-03-02T20:14:59.391Z,54.80
2018-03-02T20:17:28.487Z,52.50
2018-03-02T20:19:58.326Z,53.10
2018-03-02T20:22:28.204Z,57.07
2018-03-02T20:24:57.289Z,58.60
2018-03-02T20:27:26.396Z,58.40
2018-03-02T20:29:55.524Z,70.17
2018-03-02T20:32:25.427Z,65.17
2018-03-02T20:34:54.571Z,67.87
2018-03-02T20:37:23.675Z,63.47
2018-03-02T20:39:52.844Z,58.60
2018-03-02T20:42:21.927Z,69.53
2018-03-02T20:44:51.814Z,71.17
2018-03-02T20:47:20.885Z,74.00
2018-03-02T20:49:49.987Z,73.60
2018-03-02T20:52:19.069Z,72.33
2018-03-02T20:54:48.206Z,66.97
2018-03-02T20:57:17.312Z,73.33
2018-03-02T20:59:47.228Z,68.30
2018-03-02T21:02:17.080Z,71.37
2018-03-02T21:04:46.191Z,72.50
2018-03-02T21:07:15.269Z,76.50
2018-03-02T21:09:44.392Z,77.57
2018-03-02T21:12:13.473Z,68.67
2018-03-02T21:14:43.571Z,69.17
2018-03-02T21:17:12.666Z,66.47
2018-03-02T21:19:41.823Z,63.13
2018-03-02T21:22:11.716Z,72.30
2018-03-02T21:24:40.786Z,72.03
2018-03-02T21:27:09.902Z,71.07
2018-03-02T21:29:39.020Z,74.90
2018-03-02T21:32:08.153Z,78.43
2018-03-02T21:34:37.361Z,70.63
2018-03-02T21:37:06.441Z,73.67
2018-03-02T21:39:35.506Z,77.37
2018-03-02T21:42:04.649Z,76.23
2018-03-02T21:44:33.747Z,71.67
2018-03-02T21:47:02.812Z,75.63
2018-03-02T21:49:32.007Z,79.00
2018-03-02T21:52:01.524Z,69.03
2018-03-02T21:54:30.615Z,71.03
2018-03-02T21:56:59.776Z,68.10
2018-03-02T21:59:28.896Z,66.93
2018-03-02T22:01:57.974Z,74.07
2018-03-02T22:04:27.160Z,76.47
2018-03-02T22:06:56.235Z,79.20
2018-03-02T22:09:25.326Z,107.33
2018-03-02T22:11:54.670Z,72.27
2018-03-02T22:14:24.013Z,65.50
2018-03-02T22:16:53.088Z,67.80
2018-03-02T22:19:22.200Z,66.53
2018-03-02T22:21:51.298Z,69.43
2018-03-02T22:24:20.405Z,73.47
2018-03-02T22:26:49.480Z,70.97
2018-03-02T22:29:18.575Z,71.93
2018-03-02T22:31:47.709Z,57.63
2018-03-02T22:34:16.768Z,62.50
2018-03-02T22:36:45.858Z,66.50
2018-03-02T22:39:14.965Z,67.80
2018-03-02T22:41:44.059Z,59.23
2018-03-02T22:44:13.141Z,54.00
2018-03-02T22:46:42.246Z,55.30
2018-03-02T22:49:11.330Z,60.47
2018-03-02T22:51:40.436Z,61.37
2018-03-02T22:54:09.518Z,52.67
2018-03-02T22:56:38.639Z,62.40
2018-03-02T22:59:07.764Z,54.43
2018-03-02T23:01:36.876Z,60.50
2018-03-02T23:04:06.736Z,58.40
2018-03-02T23:06:35.876Z,51.13
2018-03-02T23:09:04.983Z,59.13
2018-03-02T23:11:34.837Z,62.23
2018-03-02T23:14:03.933Z,59.97
2018-03-02T23:16:33.027Z,60.80
2018-03-02T23:19:02.123Z,64.50
2018-03-02T23:21:32.009Z,60.60
2018-03-02T23:24:02.666Z,62.50
2018-03-02T23:26:31.747Z,63.57
2018-03-02T23:29:00.862Z,66.47
2018-03-02T23:31:29.954Z,66.10
2018-03-02T23:33:59.055Z,62.70
2018-03-02T23:36:28.151Z,56.17
2018-03-02T23:38:57.239Z,69.90
2018-03-02T23:41:26.319Z,59.27
2018-03-02T23:43:55.423Z,55.67
2018-03-02T23:46:24.517Z,66.20
2018-03-02T23:48:53.590Z,61.07
2018-03-02T23:51:22.691Z,60.00
2018-03-02T23:53:51.786Z,66.47
2018-03-02T23:56:20.890Z,63.70
2018-03-02T23:58:49.974Z,69.40
